Terminal Aerodrome Forecast
Issued by NWS

Home | Current Version | Previous Version | Text Only | Print | Product List | Glossary On
Versions: 1 2 3 4 5 6 7 8 9 10 11 12 13 14 15 16 17
000
FTUS44 KLZK 272323
TAFHOT
TAF
KHOT 272323Z 2800/2824 15007KT P6SM SCT100 BKN250
     FM280600 12010KT P6SM SCT020 BKN040 WS020/18037KT
     FM281200 15010G16KT P6SM SCT010 BKN020 WS020/20042KT
     FM281500 17006KT P6SM VCSH SCT005 BKN010=

USA.gov is the U.S. government's official web portal to all federal, state and local government web resources and services.